sensor_id;sensor_type;location;lat;lon;timestamp;P1;durP1;ratioP1;P2;durP2;ratioP2
35010;SDS011;21205;37.378;127.098;2023-03-01T00:02:20;2.08;;;1.20;;
35010;SDS011;21205;37.378;127.098;2023-03-01T00:04:49;1.48;;;1.10;;
35010;SDS011;21205;37.378;127.098;2023-03-01T00:07:19;1.75;;;1.10;;
35010;SDS011;21205;37.378;127.098;2023-03-01T00:09:49;2.28;;;1.20;;
35010;SDS011;21205;37.378;127.098;2023-03-01T00:12:19;2.75;;;0.82;;
35010;SDS011;21205;37.378;127.098;2023-03-01T00:14:49;2.88;;;1.20;;
35010;SDS011;21205;37.378;127.098;2023-03-01T00:17:18;2.13;;;1.13;;
35010;SDS011;21205;37.378;127.098;2023-03-01T00:19:48;2.05;;;1.20;;
35010;SDS011;21205;37.378;127.098;2023-03-01T00:22:18;2.00;;;1.00;;
35010;SDS011;21205;37.378;127.098;2023-03-01T00:24:47;1.25;;;1.00;;
35010;SDS011;21205;37.378;127.098;2023-03-01T00:27:17;2.78;;;1.00;;
35010;SDS011;21205;37.378;127.098;2023-03-01T00:29:47;1.58;;;1.00;;
35010;SDS011;21205;37.378;127.098;2023-03-01T00:32:16;1.45;;;1.08;;
35010;SDS011;21205;37.378;127.098;2023-03-01T00:34:46;1.33;;;1.10;;
35010;SDS011;21205;37.378;127.098;2023-03-01T00:37:22;1.60;;;1.02;;
35010;SDS011;21205;37.378;127.098;2023-03-01T00:39:52;1.15;;;1.05;;
35010;SDS011;21205;37.378;127.098;2023-03-01T00:42:22;1.10;;;1.00;;
35010;SDS011;21205;37.378;127.098;2023-03-01T00:44:52;1.80;;;0.98;;
35010;SDS011;21205;37.378;127.098;2023-03-01T00:47:21;1.75;;;1.00;;
35010;SDS011;21205;37.378;127.098;2023-03-01T00:49:51;1.02;;;0.88;;
35010;SDS011;21205;37.378;127.098;2023-03-01T00:52:20;1.50;;;1.10;;
35010;SDS011;21205;37.378;127.098;2023-03-01T00:54:51;1.38;;;1.00;;
35010;SDS011;21205;37.378;127.098;2023-03-01T00:57:21;1.25;;;0.93;;
35010;SDS011;21205;37.378;127.098;2023-03-01T00:59:51;1.00;;;0.90;;
35010;SDS011;21205;37.378;127.098;2023-03-01T01:02:21;1.20;;;1.00;;
35010;SDS011;21205;37.378;127.098;2023-03-01T01:04:51;2.55;;;0.93;;
35010;SDS011;21205;37.378;127.098;2023-03-01T01:07:23;0.95;;;0.90;;
35010;SDS011;21205;37.378;127.098;2023-03-01T01:09:53;1.77;;;1.00;;
35010;SDS011;21205;37.378;127.098;2023-03-01T01:12:23;1.45;;;0.80;;
35010;SDS011;21205;37.378;127.098;2023-03-01T01:14:52;1.15;;;0.90;;
35010;SDS011;21205;37.378;127.098;2023-03-01T01:17:22;1.23;;;0.93;;
35010;SDS011;21205;37.378;127.098;2023-03-01T01:19:52;1.00;;;0.90;;
35010;SDS011;21205;37.378;127.098;2023-03-01T01:22:22;0.77;;;0.77;;
35010;SDS011;21205;37.378;127.098;2023-03-01T01:24:51;1.40;;;0.90;;
35010;SDS011;21205;37.378;127.098;2023-03-01T01:27:21;1.60;;;0.95;;
35010;SDS011;21205;37.378;127.098;2023-03-01T01:29:52;0.73;;;0.70;;
35010;SDS011;21205;37.378;127.098;2023-03-01T01:32:22;0.93;;;0.68;;
35010;SDS011;21205;37.378;127.098;2023-03-01T01:34:53;1.17;;;0.98;;
35010;SDS011;21205;37.378;127.098;2023-03-01T01:37:23;0.80;;;0.80;;
35010;SDS011;21205;37.378;127.098;2023-03-01T01:39:59;0.82;;;0.80;;
35010;SDS011;21205;37.378;127.098;2023-03-01T01:42:32;0.82;;;0.70;;
35010;SDS011;21205;37.378;127.098;2023-03-01T01:48:04;1.70;;;0.90;;
35010;SDS011;21205;37.378;127.098;2023-03-01T01:50:40;2.17;;;0.85;;
35010;SDS011;21205;37.378;127.098;2023-03-01T01:53:14;0.95;;;0.65;;
35010;SDS011;21205;37.378;127.098;2023-03-01T01:55:54;0.70;;;0.70;;
35010;SDS011;21205;37.378;127.098;2023-03-01T01:58:27;2.83;;;0.90;;
35010;SDS011;21205;37.378;127.098;2023-03-01T02:00:58;1.33;;;1.20;;
35010;SDS011;21205;37.378;127.098;2023-03-01T02:03:30;0.70;;;0.70;;
35010;SDS011;21205;37.378;127.098;2023-03-01T02:09:11;1.23;;;0.73;;
35010;SDS011;21205;37.378;127.098;2023-03-01T02:11:43;1.17;;;0.55;;
35010;SDS011;21205;37.378;127.098;2023-03-01T02:14:14;1.45;;;0.65;;
35010;SDS011;21205;37.378;127.098;2023-03-01T02:16:44;0.50;;;0.50;;
35010;SDS011;21205;37.378;127.098;2023-03-01T02:19:26;0.63;;;0.60;;
35010;SDS011;21205;37.378;127.098;2023-03-01T02:30:49;0.50;;;0.50;;
35010;SDS011;21205;37.378;127.098;2023-03-01T02:33:37;0.43;;;0.43;;
35010;SDS011;21205;37.378;127.098;2023-03-01T02:36:19;1.40;;;0.45;;
35010;SDS011;21205;37.378;127.098;2023-03-01T02:41:25;0.50;;;0.50;;
35010;SDS011;21205;37.378;127.098;2023-03-01T02:43:57;1.02;;;0.73;;
35010;SDS011;21205;37.378;127.098;2023-03-01T02:46:27;0.70;;;0.60;;
35010;SDS011;21205;37.378;127.098;2023-03-01T02:48:58;0.47;;;0.47;;
35010;SDS011;21205;37.378;127.098;2023-03-01T02:57:28;0.50;;;0.40;;
35010;SDS011;21205;37.378;127.098;2023-03-01T02:59:59;1.45;;;0.75;;
35010;SDS011;21205;37.378;127.098;2023-03-01T03:02:48;0.70;;;0.60;;
35010;SDS011;21205;37.378;127.098;2023-03-01T03:05:22;0.75;;;0.73;;
35010;SDS011;21205;37.378;127.098;2023-03-01T03:07:54;1.30;;;0.60;;
35010;SDS011;21205;37.378;127.098;2023-03-01T03:10:26;1.23;;;0.60;;
35010;SDS011;21205;37.378;127.098;2023-03-01T03:13:03;1.27;;;0.90;;
35010;SDS011;21205;37.378;127.098;2023-03-01T03:15:35;1.25;;;0.85;;
35010;SDS011;21205;37.378;127.098;2023-03-01T03:18:11;0.95;;;0.70;;
35010;SDS011;21205;37.378;127.098;2023-03-01T03:20:42;0.73;;;0.73;;
35010;SDS011;21205;37.378;127.098;2023-03-01T03:23:13;1.08;;;0.95;;
35010;SDS011;21205;37.378;127.098;2023-03-01T03:25:43;1.35;;;0.90;;
35010;SDS011;21205;37.378;127.098;2023-03-01T03:28:12;0.90;;;0.70;;
35010;SDS011;21205;37.378;127.098;2023-03-01T03:30:44;0.70;;;0.70;;
35010;SDS011;21205;37.378;127.098;2023-03-01T03:33:15;0.95;;;0.90;;
35010;SDS011;21205;37.378;127.098;2023-03-01T03:35:46;1.02;;;0.80;;
35010;SDS011;21205;37.378;127.098;2023-03-01T03:38:18;0.98;;;0.90;;
35010;SDS011;21205;37.378;127.098;2023-03-01T03:41:00;1.70;;;0.85;;
35010;SDS011;21205;37.378;127.098;2023-03-01T03:43:33;1.40;;;1.05;;
35010;SDS011;21205;37.378;127.098;2023-03-01T03:46:04;1.20;;;0.95;;
35010;SDS011;21205;37.378;127.098;2023-03-01T03:48:36;2.20;;;1.20;;
35010;SDS011;21205;37.378;127.098;2023-03-01T03:51:14;5.38;;;1.10;;
35010;SDS011;21205;37.378;127.098;2023-03-01T03:53:45;2.05;;;1.10;;
35010;SDS011;21205;37.378;127.098;2023-03-01T03:56:15;2.13;;;1.08;;
35010;SDS011;21205;37.378;127.098;2023-03-01T03:58:44;2.53;;;1.23;;
35010;SDS011;21205;37.378;127.098;2023-03-01T04:01:15;1.30;;;1.10;;
35010;SDS011;21205;37.378;127.098;2023-03-01T04:03:44;1.42;;;1.27;;
35010;SDS011;21205;37.378;127.098;2023-03-01T04:06:17;1.98;;;1.20;;
35010;SDS011;21205;37.378;127.098;2023-03-01T04:08:46;1.23;;;1.00;;
35010;SDS011;21205;37.378;127.098;2023-03-01T04:11:19;1.42;;;1.10;;
35010;SDS011;21205;37.378;127.098;2023-03-01T04:13:55;1.10;;;1.00;;
35010;SDS011;21205;37.378;127.098;2023-03-01T04:16:27;1.93;;;1.10;;
35010;SDS011;21205;37.378;127.098;2023-03-01T04:18:57;1.63;;;1.20;;
35010;SDS011;21205;37.378;127.098;2023-03-01T04:21:28;1.20;;;1.08;;
35010;SDS011;21205;37.378;127.098;2023-03-01T04:23:58;4.05;;;1.50;;
35010;SDS011;21205;37.378;127.098;2023-03-01T04:26:28;1.67;;;1.17;;
35010;SDS011;21205;37.378;127.098;2023-03-01T04:28:58;1.63;;;1.20;;
35010;SDS011;21205;37.378;127.098;2023-03-01T04:31:28;1.35;;;1.05;;
35010;SDS011;21205;37.378;127.098;2023-03-01T04:33:58;1.42;;;1.00;;
35010;SDS011;21205;37.378;127.098;2023-03-01T04:36:28;1.92;;;1.20;;
35010;SDS011;21205;37.378;127.098;2023-03-01T04:38:59;1.55;;;1.30;;
35010;SDS011;21205;37.378;127.098;2023-03-01T04:41:40;1.25;;;0.93;;
35010;SDS011;21205;37.378;127.098;2023-03-01T04:44:11;1.58;;;1.10;;
35010;SDS011;21205;37.378;127.098;2023-03-01T04:46:41;1.50;;;1.30;;
35010;SDS011;21205;37.378;127.098;2023-03-01T04:49:11;1.30;;;1.20;;
35010;SDS011;21205;37.378;127.098;2023-03-01T04:51:41;1.63;;;1.10;;
35010;SDS011;21205;37.378;127.098;2023-03-01T04:54:11;2.33;;;1.13;;
35010;SDS011;21205;37.378;127.098;2023-03-01T04:56:40;2.60;;;1.30;;
35010;SDS011;21205;37.378;127.098;2023-03-01T04:59:10;1.30;;;1.20;;
35010;SDS011;21205;37.378;127.098;2023-03-01T05:01:40;1.73;;;1.17;;
35010;SDS011;21205;37.378;127.098;2023-03-01T05:04:11;2.38;;;1.20;;
35010;SDS011;21205;37.378;127.098;2023-03-01T05:06:41;1.30;;;1.00;;
35010;SDS011;21205;37.378;127.098;2023-03-01T05:09:11;1.08;;;0.98;;
35010;SDS011;21205;37.378;127.098;2023-03-01T05:11:41;1.25;;;1.13;;
35010;SDS011;21205;37.378;127.098;2023-03-01T05:14:11;1.83;;;1.30;;
35010;SDS011;21205;37.378;127.098;2023-03-01T05:16:40;1.33;;;1.23;;
35010;SDS011;21205;37.378;127.098;2023-03-01T05:19:10;1.42;;;1.30;;
35010;SDS011;21205;37.378;127.098;2023-03-01T05:21:43;2.20;;;1.30;;
35010;SDS011;21205;37.378;127.098;2023-03-01T05:24:33;1.25;;;1.15;;
35010;SDS011;21205;37.378;127.098;2023-03-01T05:27:04;1.40;;;1.20;;
35010;SDS011;21205;37.378;127.098;2023-03-01T05:29:34;1.13;;;1.02;;
35010;SDS011;21205;37.378;127.098;2023-03-01T05:32:04;1.95;;;1.08;;
35010;SDS011;21205;37.378;127.098;2023-03-01T05:34:34;1.48;;;1.30;;
35010;SDS011;21205;37.378;127.098;2023-03-01T05:37:05;1.45;;;1.17;;
35010;SDS011;21205;37.378;127.098;2023-03-01T05:39:36;1.45;;;1.35;;
35010;SDS011;21205;37.378;127.098;2023-03-01T05:42:06;1.58;;;1.30;;
35010;SDS011;21205;37.378;127.098;2023-03-01T05:44:39;1.92;;;1.42;;
35010;SDS011;21205;37.378;127.098;2023-03-01T05:47:08;2.25;;;1.50;;
35010;SDS011;21205;37.378;127.098;2023-03-01T05:49:38;1.80;;;1.38;;
35010;SDS011;21205;37.378;127.098;2023-03-01T05:52:08;5.38;;;1.50;;
35010;SDS011;21205;37.378;127.098;2023-03-01T05:54:37;1.33;;;1.08;;
35010;SDS011;21205;37.378;127.098;2023-03-01T05:57:07;1.70;;;1.10;;
35010;SDS011;21205;37.378;127.098;2023-03-01T05:59:37;1.27;;;1.17;;
35010;SDS011;21205;37.378;127.098;2023-03-01T06:02:06;1.40;;;1.25;;
35010;SDS011;21205;37.378;127.098;2023-03-01T06:04:36;1.60;;;1.35;;
35010;SDS011;21205;37.378;127.098;2023-03-01T06:07:06;1.73;;;1.45;;
35010;SDS011;21205;37.378;127.098;2023-03-01T06:09:36;1.30;;;1.20;;
35010;SDS011;21205;37.378;127.098;2023-03-01T06:12:06;1.77;;;1.00;;
35010;SDS011;21205;37.378;127.098;2023-03-01T06:14:35;1.10;;;1.00;;
35010;SDS011;21205;37.378;127.098;2023-03-01T06:17:05;0.90;;;0.90;;
35010;SDS011;21205;37.378;127.098;2023-03-01T06:19:35;1.23;;;1.13;;
35010;SDS011;21205;37.378;127.098;2023-03-01T06:22:05;0.80;;;0.77;;
35010;SDS011;21205;37.378;127.098;2023-03-01T06:24:35;2.10;;;1.00;;
35010;SDS011;21205;37.378;127.098;2023-03-01T06:27:04;0.90;;;0.90;;
35010;SDS011;21205;37.378;127.098;2023-03-01T06:29:34;1.75;;;0.70;;
35010;SDS011;21205;37.378;127.098;2023-03-01T06:32:04;1.13;;;0.70;;
35010;SDS011;21205;37.378;127.098;2023-03-01T06:34:34;1.75;;;0.75;;
35010;SDS011;21205;37.378;127.098;2023-03-01T06:37:04;1.15;;;1.08;;
35010;SDS011;21205;37.378;127.098;2023-03-01T06:39:33;1.30;;;0.80;;
35010;SDS011;21205;37.378;127.098;2023-03-01T06:42:03;2.28;;;1.00;;
35010;SDS011;21205;37.378;127.098;2023-03-01T06:44:33;1.35;;;1.13;;
35010;SDS011;21205;37.378;127.098;2023-03-01T06:47:03;1.88;;;1.17;;
35010;SDS011;21205;37.378;127.098;2023-03-01T06:49:33;1.58;;;1.48;;
35010;SDS011;21205;37.378;127.098;2023-03-01T06:52:02;1.60;;;1.17;;
35010;SDS011;21205;37.378;127.098;2023-03-01T06:54:32;3.35;;;1.10;;
35010;SDS011;21205;37.378;127.098;2023-03-01T06:57:02;2.42;;;1.05;;
35010;SDS011;21205;37.378;127.098;2023-03-01T06:59:32;1.67;;;1.20;;
35010;SDS011;21205;37.378;127.098;2023-03-01T07:02:01;1.33;;;1.13;;
35010;SDS011;21205;37.378;127.098;2023-03-01T07:04:31;1.20;;;1.05;;
35010;SDS011;21205;37.378;127.098;2023-03-01T07:07:01;1.48;;;1.17;;
35010;SDS011;21205;37.378;127.098;2023-03-01T07:09:30;1.25;;;1.10;;
35010;SDS011;21205;37.378;127.098;2023-03-01T07:12:00;1.90;;;1.10;;
35010;SDS011;21205;37.378;127.098;2023-03-01T07:14:31;1.10;;;1.00;;
35010;SDS011;21205;37.378;127.098;2023-03-01T07:17:00;1.63;;;1.30;;
35010;SDS011;21205;37.378;127.098;2023-03-01T07:19:31;2.90;;;1.27;;
35010;SDS011;21205;37.378;127.098;2023-03-01T07:22:01;1.38;;;1.10;;
35010;SDS011;21205;37.378;127.098;2023-03-01T07:24:32;1.13;;;1.00;;
35010;SDS011;21205;37.378;127.098;2023-03-01T07:27:02;1.17;;;1.05;;
35010;SDS011;21205;37.378;127.098;2023-03-01T07:29:32;1.02;;;0.90;;
35010;SDS011;21205;37.378;127.098;2023-03-01T07:32:02;2.47;;;0.90;;
35010;SDS011;21205;37.378;127.098;2023-03-01T07:34:33;1.17;;;1.08;;
35010;SDS011;21205;37.378;127.098;2023-03-01T07:37:02;1.58;;;0.95;;
35010;SDS011;21205;37.378;127.098;2023-03-01T07:39:32;1.83;;;1.08;;
35010;SDS011;21205;37.378;127.098;2023-03-01T07:42:02;1.13;;;1.00;;
35010;SDS011;21205;37.378;127.098;2023-03-01T07:44:31;2.67;;;1.10;;
35010;SDS011;21205;37.378;127.098;2023-03-01T07:47:03;1.10;;;0.90;;
35010;SDS011;21205;37.378;127.098;2023-03-01T07:49:33;1.27;;;1.00;;
35010;SDS011;21205;37.378;127.098;2023-03-01T07:52:03;1.92;;;0.90;;
35010;SDS011;21205;37.378;127.098;2023-03-01T07:54:33;2.60;;;0.90;;
35010;SDS011;21205;37.378;127.098;2023-03-01T07:57:03;3.22;;;1.23;;
35010;SDS011;21205;37.378;127.098;2023-03-01T07:59:32;1.63;;;1.08;;
35010;SDS011;21205;37.378;127.098;2023-03-01T08:02:02;2.92;;;1.20;;
35010;SDS011;21205;37.378;127.098;2023-03-01T08:04:32;2.45;;;1.00;;
35010;SDS011;21205;37.378;127.098;2023-03-01T08:07:03;2.25;;;1.20;;
35010;SDS011;21205;37.378;127.098;2023-03-01T08:09:34;1.73;;;1.00;;
35010;SDS011;21205;37.378;127.098;2023-03-01T08:12:07;2.92;;;0.95;;
35010;SDS011;21205;37.378;127.098;2023-03-01T08:14:37;3.50;;;1.05;;
35010;SDS011;21205;37.378;127.098;2023-03-01T08:17:07;1.42;;;0.80;;
35010;SDS011;21205;37.378;127.098;2023-03-01T08:19:36;1.10;;;0.80;;
35010;SDS011;21205;37.378;127.098;2023-03-01T08:22:06;1.45;;;0.95;;
35010;SDS011;21205;37.378;127.098;2023-03-01T08:24:36;0.73;;;0.70;;
35010;SDS011;21205;37.378;127.098;2023-03-01T08:27:05;1.33;;;0.90;;
35010;SDS011;21205;37.378;127.098;2023-03-01T08:29:36;0.70;;;0.65;;
35010;SDS011;21205;37.378;127.098;2023-03-01T08:32:05;2.72;;;0.80;;
35010;SDS011;21205;37.378;127.098;2023-03-01T08:34:35;0.63;;;0.45;;
35010;SDS011;21205;37.378;127.098;2023-03-01T08:37:07;1.02;;;0.80;;
35010;SDS011;21205;37.378;127.098;2023-03-01T08:39:38;1.33;;;0.70;;
35010;SDS011;21205;37.378;127.098;2023-03-01T08:42:08;1.45;;;0.98;;
35010;SDS011;21205;37.378;127.098;2023-03-01T08:44:38;1.23;;;1.00;;
35010;SDS011;21205;37.378;127.098;2023-03-01T08:47:09;1.02;;;0.82;;
35010;SDS011;21205;37.378;127.098;2023-03-01T08:49:39;1.40;;;0.93;;
35010;SDS011;21205;37.378;127.098;2023-03-01T08:52:10;1.45;;;0.73;;
35010;SDS011;21205;37.378;127.098;2023-03-01T08:54:40;0.60;;;0.60;;
35010;SDS011;21205;37.378;127.098;2023-03-01T08:57:09;1.15;;;0.70;;
35010;SDS011;21205;37.378;127.098;2023-03-01T08:59:40;0.60;;;0.60;;
35010;SDS011;21205;37.378;127.098;2023-03-01T09:02:14;0.57;;;0.57;;
35010;SDS011;21205;37.378;127.098;2023-03-01T09:04:46;1.58;;;0.80;;
35010;SDS011;21205;37.378;127.098;2023-03-01T09:07:15;0.40;;;0.32;;
35010;SDS011;21205;37.378;127.098;2023-03-01T09:09:45;0.60;;;0.57;;
35010;SDS011;21205;37.378;127.098;2023-03-01T09:12:15;0.85;;;0.50;;
35010;SDS011;21205;37.378;127.098;2023-03-01T09:14:44;1.45;;;0.60;;
35010;SDS011;21205;37.378;127.098;2023-03-01T09:17:14;0.80;;;0.50;;
35010;SDS011;21205;37.378;127.098;2023-03-01T09:19:44;0.85;;;0.50;;
35010;SDS011;21205;37.378;127.098;2023-03-01T09:22:13;0.50;;;0.50;;
35010;SDS011;21205;37.378;127.098;2023-03-01T09:24:43;0.50;;;0.40;;
35010;SDS011;21205;37.378;127.098;2023-03-01T09:27:13;0.85;;;0.57;;
35010;SDS011;21205;37.378;127.098;2023-03-01T09:29:42;1.73;;;0.60;;
35010;SDS011;21205;37.378;127.098;2023-03-01T09:32:12;0.60;;;0.60;;
35010;SDS011;21205;37.378;127.098;2023-03-01T09:34:42;0.30;;;0.30;;
35010;SDS011;21205;37.378;127.098;2023-03-01T09:37:32;0.60;;;0.40;;
35010;SDS011;21205;37.378;127.098;2023-03-01T09:40:04;0.50;;;0.50;;
35010;SDS011;21205;37.378;127.098;2023-03-01T09:42:36;0.73;;;0.40;;
35010;SDS011;21205;37.378;127.098;2023-03-01T09:45:33;0.40;;;0.40;;
35010;SDS011;21205;37.378;127.098;2023-03-01T09:48:09;0.40;;;0.40;;
35010;SDS011;21205;37.378;127.098;2023-03-01T09:50:46;3.25;;;0.45;;
35010;SDS011;21205;37.378;127.098;2023-03-01T09:53:17;0.70;;;0.40;;
35010;SDS011;21205;37.378;127.098;2023-03-01T09:56:00;0.60;;;0.60;;
35010;SDS011;21205;37.378;127.098;2023-03-01T10:07:36;0.90;;;0.63;;
35010;SDS011;21205;37.378;127.098;2023-03-01T10:10:00;0.80;;;0.50;;
35010;SDS011;21205;37.378;127.098;2023-03-01T10:12:34;0.40;;;0.40;;
35010;SDS011;21205;37.378;127.098;2023-03-01T10:15:13;0.40;;;0.40;;
35010;SDS011;21205;37.378;127.098;2023-03-01T10:20:48;0.77;;;0.52;;
35010;SDS011;21205;37.378;127.098;2023-03-01T10:23:24;0.82;;;0.73;;
35010;SDS011;21205;37.378;127.098;2023-03-01T10:29:16;1.75;;;0.52;;
35010;SDS011;21205;37.378;127.098;2023-03-01T10:31:50;1.17;;;0.70;;
35010;SDS011;21205;37.378;127.098;2023-03-01T10:34:26;0.50;;;0.50;;
35010;SDS011;21205;37.378;127.098;2023-03-01T10:37:01;0.30;;;0.30;;
35010;SDS011;21205;37.378;127.098;2023-03-01T10:39:55;0.50;;;0.50;;
35010;SDS011;21205;37.378;127.098;2023-03-01T10:42:45;1.60;;;0.50;;
35010;SDS011;21205;37.378;127.098;2023-03-01T10:45:39;0.75;;;0.50;;
35010;SDS011;21205;37.378;127.098;2023-03-01T10:53:29;0.30;;;0.30;;
35010;SDS011;21205;37.378;127.098;2023-03-01T10:56:16;0.57;;;0.50;;
35010;SDS011;21205;37.378;127.098;2023-03-01T10:58:57;0.50;;;0.50;;
35010;SDS011;21205;37.378;127.098;2023-03-01T11:01:33;0.75;;;0.47;;
35010;SDS011;21205;37.378;127.098;2023-03-01T11:06:37;0.45;;;0.45;;
35010;SDS011;21205;37.378;127.098;2023-03-01T11:09:21;0.55;;;0.40;;
35010;SDS011;21205;37.378;127.098;2023-03-01T11:11:53;0.70;;;0.50;;
35010;SDS011;21205;37.378;127.098;2023-03-01T11:14:25;0.50;;;0.40;;
35010;SDS011;21205;37.378;127.098;2023-03-01T11:16:59;0.55;;;0.50;;
35010;SDS011;21205;37.378;127.098;2023-03-01T11:19:29;0.52;;;0.45;;
35010;SDS011;21205;37.378;127.098;2023-03-01T11:22:03;0.40;;;0.30;;
35010;SDS011;21205;37.378;127.098;2023-03-01T11:25:11;0.55;;;0.43;;
35010;SDS011;21205;37.378;127.098;2023-03-01T11:27:38;0.45;;;0.30;;
35010;SDS011;21205;37.378;127.098;2023-03-01T11:30:23;0.95;;;0.45;;
35010;SDS011;21205;37.378;127.098;2023-03-01T11:35:53;1.00;;;0.60;;
35010;SDS011;21205;37.378;127.098;2023-03-01T11:38:29;0.40;;;0.40;;
35010;SDS011;21205;37.378;127.098;2023-03-01T11:43:54;0.40;;;0.40;;
35010;SDS011;21205;37.378;127.098;2023-03-01T12:03:41;8.73;;;0.45;;
35010;SDS011;21205;37.378;127.098;2023-03-01T12:06:20;0.30;;;0.30;;
35010;SDS011;21205;37.378;127.098;2023-03-01T12:09:09;0.30;;;0.30;;
35010;SDS011;21205;37.378;127.098;2023-03-01T12:29:23;0.45;;;0.45;;
35010;SDS011;21205;37.378;127.098;2023-03-01T12:51:32;0.28;;;0.28;;
35010;SDS011;21205;37.378;127.098;2023-03-01T12:54:38;0.10;;;0.10;;
35010;SDS011;21205;37.378;127.098;2023-03-01T13:11:22;0.20;;;0.20;;
35010;SDS011;21205;37.378;127.098;2023-03-01T13:14:00;0.50;;;0.30;;
35010;SDS011;21205;37.378;127.098;2023-03-01T13:16:47;0.25;;;0.25;;
35010;SDS011;21205;37.378;127.098;2023-03-01T13:19:20;0.30;;;0.30;;
35010;SDS011;21205;37.378;127.098;2023-03-01T13:21:52;0.20;;;0.20;;
35010;SDS011;21205;37.378;127.098;2023-03-01T13:29:45;0.30;;;0.30;;
35010;SDS011;21205;37.378;127.098;2023-03-01T13:37:47;0.28;;;0.20;;
35010;SDS011;21205;37.378;127.098;2023-03-01T13:42:51;0.17;;;0.17;;
35010;SDS011;21205;37.378;127.098;2023-03-01T13:45:36;0.30;;;0.30;;
35010;SDS011;21205;37.378;127.098;2023-03-01T13:48:15;0.20;;;0.20;;
35010;SDS011;21205;37.378;127.098;2023-03-01T13:51:03;0.17;;;0.15;;
35010;SDS011;21205;37.378;127.098;2023-03-01T13:53:37;0.25;;;0.25;;
35010;SDS011;21205;37.378;127.098;2023-03-01T13:56:12;0.20;;;0.20;;
35010;SDS011;21205;37.378;127.098;2023-03-01T13:58:49;1.10;;;0.68;;
35010;SDS011;21205;37.378;127.098;2023-03-01T14:01:40;0.20;;;0.20;;
35010;SDS011;21205;37.378;127.098;2023-03-01T14:04:18;0.28;;;0.28;;
35010;SDS011;21205;37.378;127.098;2023-03-01T14:07:16;2.10;;;0.22;;
35010;SDS011;21205;37.378;127.098;2023-03-01T14:09:50;0.82;;;0.32;;
35010;SDS011;21205;37.378;127.098;2023-03-01T14:20:27;0.90;;;0.40;;
35010;SDS011;21205;37.378;127.098;2023-03-01T14:23:10;0.30;;;0.30;;
35010;SDS011;21205;37.378;127.098;2023-03-01T14:25:49;0.38;;;0.30;;
35010;SDS011;21205;37.378;127.098;2023-03-01T14:28:23;0.22;;;0.22;;
35010;SDS011;21205;37.378;127.098;2023-03-01T14:30:56;0.20;;;0.20;;
35010;SDS011;21205;37.378;127.098;2023-03-01T14:33:31;0.40;;;0.40;;
35010;SDS011;21205;37.378;127.098;2023-03-01T14:36:09;0.75;;;0.50;;
35010;SDS011;21205;37.378;127.098;2023-03-01T14:38:44;0.20;;;0.20;;
35010;SDS011;21205;37.378;127.098;2023-03-01T14:41:20;0.38;;;0.38;;
35010;SDS011;21205;37.378;127.098;2023-03-01T14:43:55;0.30;;;0.30;;
35010;SDS011;21205;37.378;127.098;2023-03-01T14:46:43;0.30;;;0.30;;
35010;SDS011;21205;37.378;127.098;2023-03-01T14:49:15;0.30;;;0.30;;
35010;SDS011;21205;37.378;127.098;2023-03-01T14:52:02;0.20;;;0.20;;
35010;SDS011;21205;37.378;127.098;2023-03-01T14:54:41;0.20;;;0.20;;
35010;SDS011;21205;37.378;127.098;2023-03-01T14:57:16;0.28;;;0.25;;
35010;SDS011;21205;37.378;127.098;2023-03-01T14:59:50;0.30;;;0.20;;
35010;SDS011;21205;37.378;127.098;2023-03-01T15:02:26;0.43;;;0.30;;
35010;SDS011;21205;37.378;127.098;2023-03-01T15:04:58;0.20;;;0.20;;
35010;SDS011;21205;37.378;127.098;2023-03-01T15:07:39;0.20;;;0.20;;
35010;SDS011;21205;37.378;127.098;2023-03-01T15:10:19;0.50;;;0.30;;
35010;SDS011;21205;37.378;127.098;2023-03-01T15:12:51;0.40;;;0.40;;
35010;SDS011;21205;37.378;127.098;2023-03-01T15:15:26;0.10;;;0.10;;
35010;SDS011;21205;37.378;127.098;2023-03-01T15:18:06;0.30;;;0.28;;
35010;SDS011;21205;37.378;127.098;2023-03-01T15:20:44;0.47;;;0.30;;
35010;SDS011;21205;37.378;127.098;2023-03-01T15:25:56;0.40;;;0.40;;
35010;SDS011;21205;37.378;127.098;2023-03-01T15:28:28;0.20;;;0.20;;
35010;SDS011;21205;37.378;127.098;2023-03-01T15:31:02;0.20;;;0.20;;
35010;SDS011;21205;37.378;127.098;2023-03-01T15:33:53;1.27;;;0.20;;
35010;SDS011;21205;37.378;127.098;2023-03-01T15:36:51;0.28;;;0.28;;
35010;SDS011;21205;37.378;127.098;2023-03-01T15:42:12;0.22;;;0.20;;
35010;SDS011;21205;37.378;127.098;2023-03-01T15:45:09;0.30;;;0.30;;
35010;SDS011;21205;37.378;127.098;2023-03-01T15:47:55;0.40;;;0.40;;
35010;SDS011;21205;37.378;127.098;2023-03-01T15:50:30;0.47;;;0.30;;
35010;SDS011;21205;37.378;127.098;2023-03-01T15:53:09;0.25;;;0.25;;
35010;SDS011;21205;37.378;127.098;2023-03-01T15:55:42;0.45;;;0.40;;
35010;SDS011;21205;37.378;127.098;2023-03-01T15:58:15;0.10;;;0.10;;
35010;SDS011;21205;37.378;127.098;2023-03-01T16:00:47;0.30;;;0.30;;
35010;SDS011;21205;37.378;127.098;2023-03-01T16:03:27;0.57;;;0.32;;
35010;SDS011;21205;37.378;127.098;2023-03-01T16:05:58;0.32;;;0.32;;
35010;SDS011;21205;37.378;127.098;2023-03-01T16:08:28;0.40;;;0.40;;
35010;SDS011;21205;37.378;127.098;2023-03-01T16:10:58;0.22;;;0.22;;
35010;SDS011;21205;37.378;127.098;2023-03-01T16:13:28;0.63;;;0.63;;
35010;SDS011;21205;37.378;127.098;2023-03-01T16:15:58;0.10;;;0.10;;
35010;SDS011;21205;37.378;127.098;2023-03-01T16:18:28;0.28;;;0.20;;
35010;SDS011;21205;37.378;127.098;2023-03-01T16:20:58;0.20;;;0.20;;
35010;SDS011;21205;37.378;127.098;2023-03-01T16:23:28;0.25;;;0.20;;
35010;SDS011;21205;37.378;127.098;2023-03-01T16:26:01;0.20;;;0.20;;
35010;SDS011;21205;37.378;127.098;2023-03-01T16:28:30;0.20;;;0.20;;
35010;SDS011;21205;37.378;127.098;2023-03-01T16:31:00;0.28;;;0.28;;
35010;SDS011;21205;37.378;127.098;2023-03-01T16:33:30;0.25;;;0.17;;
35010;SDS011;21205;37.378;127.098;2023-03-01T16:36:11;0.30;;;0.30;;
35010;SDS011;21205;37.378;127.098;2023-03-01T16:38:42;1.98;;;0.30;;
35010;SDS011;21205;37.378;127.098;2023-03-01T16:41:13;0.75;;;0.30;;
35010;SDS011;21205;37.378;127.098;2023-03-01T16:43:44;0.32;;;0.32;;
35010;SDS011;21205;37.378;127.098;2023-03-01T16:46:19;0.57;;;0.55;;
35010;SDS011;21205;37.378;127.098;2023-03-01T16:48:51;0.38;;;0.35;;
35010;SDS011;21205;37.378;127.098;2023-03-01T16:51:22;0.20;;;0.20;;
35010;SDS011;21205;37.378;127.098;2023-03-01T16:53:52;0.40;;;0.40;;
35010;SDS011;21205;37.378;127.098;2023-03-01T16:56:22;0.38;;;0.32;;
35010;SDS011;21205;37.378;127.098;2023-03-01T16:58:51;0.52;;;0.30;;
35010;SDS011;21205;37.378;127.098;2023-03-01T17:01:21;0.20;;;0.20;;
35010;SDS011;21205;37.378;127.098;2023-03-01T17:03:54;0.20;;;0.20;;
35010;SDS011;21205;37.378;127.098;2023-03-01T17:06:23;0.40;;;0.40;;
35010;SDS011;21205;37.378;127.098;2023-03-01T17:08:54;0.40;;;0.40;;
35010;SDS011;21205;37.378;127.098;2023-03-01T17:11:25;0.20;;;0.20;;
35010;SDS011;21205;37.378;127.098;2023-03-01T17:13:55;0.38;;;0.30;;
35010;SDS011;21205;37.378;127.098;2023-03-01T17:16:25;0.30;;;0.30;;
35010;SDS011;21205;37.378;127.098;2023-03-01T17:18:55;0.45;;;0.40;;
35010;SDS011;21205;37.378;127.098;2023-03-01T17:21:25;1.33;;;0.60;;
35010;SDS011;21205;37.378;127.098;2023-03-01T17:23:56;0.30;;;0.30;;